Time;durP1;ratioP1;P1;durP2;ratioP2;P2;SDS_P1;SDS_P2;PMS_P1;PMS_P2;Temp;Humidity;BMP_temperature;BMP_pressure;BME280_temperature;BME280_humidity;BME280_pressure;Samples;Min_cycle;Max_cycle;Signal;HPM_P1;HPM_P2
2022/05/18 00:03:04;;;;;;;7.73;4.30;;;7.80;1.00;;;;;;10307126;28;20512;-82
2022/05/18 00:08:27;;;;;;;18.53;7.83;;;;;;;;;;10340655;28;20256;-82
2022/05/18 00:13:51;;;;;;;25.93;15.73;;;7.80;1.00;;;;;;10346970;28;20198;-82
2022/05/18 00:19:12;;;;;;;23.63;15.03;;;7.80;99.90;;;;;;10346587;28;20220;-82
2022/05/18 00:24:34;;;;;;;13.40;8.73;;;7.60;99.90;;;;;;10332939;28;20509;-82
2022/05/18 00:29:55;;;;;;;9.53;5.97;;;7.50;99.90;;;;;;10359910;28;20388;-81
2022/05/18 00:35:17;;;;;;;8.00;4.97;;;7.40;99.90;;;;;;10346151;28;20234;-82
2022/05/18 00:40:43;;;;;;;9.83;5.30;;;7.30;99.90;;;;;;10332383;28;20441;-82
2022/05/18 00:46:06;;;;;;;7.63;4.57;;;;;;;;;;10331975;28;20254;-81
2022/05/18 00:51:33;;;;;;;9.37;4.67;;;7.10;1.00;;;;;;10358002;28;20247;-82
2022/05/18 00:57:00;;;;;;;8.47;4.50;;;;;;;;;;10358703;28;20205;-83
2022/05/18 01:02:24;;;;;;;11.03;4.77;;;6.80;1.00;;;;;;10345411;28;20562;-82
2022/05/18 01:07:49;;;;;;;7.50;4.40;;;6.70;1.00;;;;;;10345209;28;20223;-82
2022/05/18 01:13:12;;;;;;;8.03;4.33;;;6.70;1.00;;;;;;10345146;28;20190;-82
2022/05/18 01:18:34;;;;;;;9.00;4.73;;;;;;;;;;10344401;28;20203;-82
2022/05/18 01:24:10;;;;;;;8.70;4.50;;;6.40;1.00;;;;;;10316792;28;20195;-81
2022/05/18 01:29:32;;;;;;;8.77;5.27;;;6.30;1.00;;;;;;10343907;28;20235;-82
2022/05/18 01:34:53;;;;;;;12.17;5.40;;;6.10;1.00;;;;;;10357752;28;20259;-80
2022/05/18 01:40:39;;;;;;;18.17;6.77;;;6.00;1.00;;;;;;10343427;28;20253;-81
2022/05/18 01:46:03;;;;;;;7.37;4.80;;;6.10;1.00;;;;;;10346310;28;20231;-82
2022/05/18 01:51:45;;;;;;;10.50;5.80;;;6.10;1.00;;;;;;10357072;28;20211;-82
2022/05/18 01:57:06;;;;;;;9.87;6.33;;;6.00;1.00;;;;;;10342481;28;20196;-83
2022/05/18 02:02:28;;;;;;;10.17;6.43;;;6.00;1.00;;;;;;10328939;28;20215;-82
2022/05/18 02:07:50;;;;;;;10.03;6.57;;;5.90;1.00;;;;;;10342327;28;20283;-82
2022/05/18 02:13:11;;;;;;;14.70;6.70;;;5.70;1.00;;;;;;10342357;28;20245;-82
2022/05/18 02:25:37;;;;;;;11.40;6.43;;;5.50;1.00;;;;;;10301471;28;20265;-82
2022/05/18 02:30:58;;;;;;;12.77;6.63;;;5.50;1.00;;;;;;10315607;28;20199;-82
2022/05/18 02:36:20;;;;;;;13.27;7.40;;;5.40;1.00;;;;;;10334152;28;20592;-82
2022/05/18 02:41:42;;;;;;;13.27;8.47;;;5.50;1.00;;;;;;10355308;28;20268;-82
2022/05/18 02:47:05;;;;;;;16.00;9.73;;;5.50;1.00;;;;;;10354588;28;20416;-82
2022/05/18 02:52:26;;;;;;;17.57;8.83;;;5.50;1.00;;;;;;10313693;28;20499;-82
2022/05/18 02:57:48;;;;;;;13.53;8.27;;;5.50;1.00;;;;;;10341173;28;20278;-82
2022/05/18 03:03:10;;;;;;;15.20;8.67;;;5.50;1.00;;;;;;10354442;28;20196;-82
2022/05/18 03:08:33;;;;;;;15.63;8.20;;;5.60;1.00;;;;;;10316382;28;20391;-82
2022/05/18 03:13:55;;;;;;;13.43;8.10;;;5.60;1.00;;;;;;10316377;28;20288;-82
2022/05/18 03:19:16;;;;;;;12.47;7.57;;;5.60;1.00;;;;;;10336343;28;20644;-82
2022/05/18 03:24:37;;;;;;;14.10;7.53;;;5.60;1.00;;;;;;10340404;28;20190;-82
2022/05/18 03:29:59;;;;;;;20.77;10.10;;;5.70;1.00;;;;;;10340280;28;20283;-82
2022/05/18 03:35:20;;;;;;;25.13;12.03;;;5.60;1.00;;;;;;10372630;28;20382;-82
2022/05/18 03:40:42;;;;;;;22.87;12.07;;;5.60;1.00;;;;;;10371832;28;20192;-82
2022/05/18 03:46:04;;;;;;;21.50;12.70;;;5.70;1.00;;;;;;10350766;28;20540;-82
2022/05/18 03:51:26;;;;;;;19.73;11.93;;;5.80;1.00;;;;;;10313697;28;20206;-82
2022/05/18 03:56:48;;;;;;;24.30;13.43;;;6.00;1.00;;;;;;10325958;28;20203;-83
2022/05/18 04:02:09;;;;;;;25.23;13.33;;;6.00;1.00;;;;;;10353296;28;20197;-83
2022/05/18 04:07:30;;;;;;;22.60;12.53;;;6.10;1.00;;;;;;10354118;28;20471;-83
2022/05/18 04:12:51;;;;;;;19.00;9.77;;;6.20;1.00;;;;;;10339467;28;20276;-83
2022/05/18 04:18:13;;;;;;;18.53;8.40;;;6.20;1.00;;;;;;10325870;28;20216;-83
2022/05/18 04:23:38;;;;;;;16.60;8.67;;;6.40;1.00;;;;;;10355516;28;20237;-83
2022/05/18 04:28:59;;;;;;;19.47;9.37;;;6.60;1.00;;;;;;10359970;28;20402;-83
2022/05/18 04:34:22;;;;;;;15.43;7.47;;;6.80;1.00;;;;;;10345870;28;20248;-82
2022/05/18 04:39:43;;;;;;;13.47;7.90;;;7.10;1.00;;;;;;10345793;28;20193;-83
2022/05/18 04:45:07;;;;;;;16.47;8.87;;;7.30;1.00;;;;;;10345630;28;20520;-82
2022/05/18 04:50:28;;;;;;;11.20;5.47;;;7.40;1.00;;;;;;10359281;28;20203;-82
2022/05/18 04:55:49;;;;;;;13.30;5.40;;;7.50;1.00;;;;;;10330397;28;20206;-83
2022/05/18 05:01:11;;;;;;;11.13;4.90;;;7.60;1.00;;;;;;10345113;28;20209;-82
2022/05/18 05:06:32;;;;;;;9.63;5.20;;;7.70;1.00;;;;;;10358394;28;20236;-82
2022/05/18 05:11:54;;;;;;;14.77;6.53;;;8.00;1.00;;;;;;10344901;28;20494;-82
2022/05/18 05:17:15;;;;;;;12.10;4.43;;;8.20;1.00;;;;;;10345259;28;20218;-82
2022/05/18 05:22:37;;;;;;;5.60;3.00;;;8.40;1.00;;;;;;10344342;28;20199;-83
2022/05/18 05:27:58;;;;;;;7.90;3.47;;;8.60;1.00;;;;;;10330923;28;20271;-83
2022/05/18 05:33:20;;;;;;;12.53;3.63;;;8.70;1.00;;;;;;10330083;28;20240;-83
2022/05/18 05:38:41;;;;;;;4.17;2.17;;;8.70;1.00;;;;;;10330401;28;20205;-83
2022/05/18 05:44:02;;;;;;;6.53;2.10;;;8.90;1.00;;;;;;10344062;28;20187;-83
2022/05/18 05:49:23;;;;;;;2.10;1.00;;;9.10;1.00;;;;;;10356753;28;20332;-83
2022/05/18 05:54:45;;;;;;;3.23;1.30;;;9.30;1.00;;;;;;10305450;28;20395;-83
2022/05/18 06:00:07;;;;;;;4.00;2.03;;;9.50;1.00;;;;;;10302858;28;20201;-83
2022/05/18 06:05:34;;;;;;;1.73;1.37;;;9.80;1.00;;;;;;10302488;28;20545;-82
2022/05/18 06:10:57;;;;;;;3.27;1.23;;;10.10;1.00;;;;;;10302666;28;20207;-83
2022/05/18 06:16:18;;;;;;;2.47;1.40;;;10.30;1.00;;;;;;10315738;28;20200;-83
2022/05/18 06:21:39;;;;;;;4.67;1.40;;;10.70;99.90;;;;;;10330603;28;20200;-81
2022/05/18 06:27:01;;;;;;;5.33;1.30;;;11.10;99.90;;;;;;10356046;28;20607;-82
2022/05/18 06:32:22;;;;;;;6.95;1.92;;;11.80;1.00;;;;;;10340784;28;20272;-82
2022/05/18 06:37:45;;;;;;;10.25;1.90;;;12.50;3.80;;;;;;10328379;28;20208;-82
2022/05/18 06:43:07;;;;;;;3.78;1.77;;;13.20;1.00;;;;;;10327894;28;20275;-82
2022/05/18 06:48:28;;;;;;;6.00;1.13;;;13.80;1.00;;;;;;10353935;28;20231;-82
2022/05/18 06:54:05;;;;;;;3.70;1.63;;;14.20;29.90;;;;;;10329280;28;20389;-82
2022/05/18 06:59:28;;;;;;;2.42;1.23;;;14.80;99.90;;;;;;10354386;28;20202;-82
2022/05/18 07:04:49;;;;;;;2.65;1.25;;;15.30;1.00;;;;;;10327440;28;20250;-82
2022/05/18 07:10:12;;;;;;;3.83;1.40;;;15.90;99.90;;;;;;10341217;28;20230;-83
2022/05/18 07:15:33;;;;;;;4.03;1.05;;;16.40;1.00;;;;;;10290434;28;20231;-81
2022/05/18 07:20:59;;;;;;;1.88;1.10;;;16.70;1.00;;;;;;10349238;28;20376;-81
2022/05/18 07:26:22;;;;;;;4.60;0.95;;;17.50;99.90;;;;;;10321687;28;20225;-81
2022/05/18 07:37:23;;;;;;;3.78;1.38;;;17.80;1.00;;;;;;10347757;28;20209;-81
2022/05/18 07:42:44;;;;;;;4.82;1.27;;;17.90;1.00;;;;;;10349569;28;20208;-81
2022/05/18 07:48:06;;;;;;;4.05;1.00;;;17.90;1.00;;;;;;10322320;28;20257;-81
2022/05/18 07:53:28;;;;;;;3.28;1.08;;;18.50;1.00;;;;;;10329177;28;20567;-80
2022/05/18 07:58:49;;;;;;;2.33;1.08;;;19.00;1.00;;;;;;10324538;28;20212;-81
2022/05/18 08:04:11;;;;;;;7.93;1.13;;;19.50;99.90;;;;;;10342989;28;20566;-89
2022/05/18 08:15:05;;;;;;;3.65;1.27;;;19.40;99.90;;;;;;10342303;28;20225;-82
2022/05/18 08:15:14;;;;;;;2.67;1.23;;;19.80;99.90;;;;;;10339622;28;20221;-85
2022/05/18 08:20:41;;;;;;;3.72;1.27;;;20.30;41.20;;;;;;10342871;28;20481;-86
2022/05/18 08:26:03;;;;;;;4.55;1.27;;;20.50;1.00;;;;;;10340206;28;20209;-88
2022/05/18 08:31:24;;;;;;;7.00;2.63;;;20.60;1.00;;;;;;10313887;28;20202;-84
2022/05/18 08:36:45;;;;;;;4.70;1.73;;;20.80;1.00;;;;;;10314288;28;20241;-88
2022/05/18 08:42:08;;;;;;;5.43;1.10;;;21.20;1.00;;;;;;10300559;28;20218;-87
2022/05/18 08:47:39;;;;;;;3.00;0.95;;;21.70;1.00;;;;;;10302763;28;20676;-83
2022/05/18 08:53:41;;;;;;;3.95;1.38;;;21.70;1.00;;;;;;10351117;28;20217;-81
2022/05/18 08:59:09;;;;;;;4.70;2.60;;;22.00;1.00;;;;;;10353981;28;20496;-85
2022/05/18 09:04:50;;;;;;;2.65;1.30;;;22.00;1.00;;;;;;10355422;28;20197;-87
2022/05/18 09:10:33;;;;;;;3.67;0.90;;;22.50;1.00;;;;;;10342061;28;20230;-84
2022/05/18 09:16:43;;;;;;;1.60;1.23;;;22.50;1.00;;;;;;10350048;28;20273;-83
2022/05/18 09:22:30;;;;;;;3.40;1.38;;;22.50;1.00;;;;;;10296135;28;20580;-83
2022/05/18 09:28:28;;;;;;;3.58;1.10;;;23.00;1.00;;;;;;10279909;28;20230;-83
2022/05/18 09:33:58;;;;;;;3.85;1.38;;;23.10;1.00;;;;;;10300818;28;20239;-83
2022/05/18 09:39:23;;;;;;;3.30;0.95;;;23.30;1.00;;;;;;10333063;28;20205;-84
2022/05/18 09:44:50;;;;;;;2.15;0.90;;;23.60;1.00;;;;;;10320586;28;20206;-90
2022/05/18 09:50:11;;;;;;;2.58;1.38;;;23.60;1.00;;;;;;10336715;28;20241;-88
2022/05/18 09:55:33;;;;;;;2.17;0.80;;;23.80;99.90;;;;;;10334382;28;20210;-81
2022/05/18 10:07:27;;;;;;;2.22;1.08;;;24.00;99.90;;;;;;10324140;28;20255;-83
2022/05/18 10:12:30;;;;;;;1.85;0.95;;;24.80;99.90;;;;;;10306961;28;20249;-85
2022/05/18 10:18:19;;;;;;;1.88;0.93;;;24.70;99.90;;;;;;10306015;28;20456;-82
2022/05/18 10:23:55;;;;;;;1.67;1.30;;;24.60;99.90;;;;;;10346681;28;20245;-82
2022/05/18 10:29:23;;;;;;;3.45;2.38;;;24.90;99.90;;;;;;10353162;28;20507;-83
2022/05/18 10:34:55;;;;;;;1.58;0.95;;;25.20;99.90;;;;;;10344910;28;20243;-85
2022/05/18 10:40:20;;;;;;;3.17;1.02;;;25.60;1.00;;;;;;10371474;28;20206;-87
2022/05/18 10:45:43;;;;;;;10.73;6.00;;;25.50;99.90;;;;;;10370483;28;20516;-83
2022/05/18 10:51:11;;;;;;;2.20;1.20;;;25.80;99.90;;;;;;10373360;28;20213;-83
2022/05/18 10:56:32;;;;;;;0.85;0.63;;;25.90;99.90;;;;;;10357490;28;20230;-81
2022/05/18 11:02:28;;;;;;;15.02;6.88;;;25.80;99.90;;;;;;10350111;28;20205;-83
2022/05/18 11:07:50;;;;;;;2.58;1.33;;;25.60;99.90;;;;;;10330373;28;20594;-83
2022/05/18 11:13:37;;;;;;;1.42;0.90;;;25.80;99.90;;;;;;10314167;28;20218;-83
2022/05/18 11:18:58;;;;;;;3.63;1.42;;;25.80;99.90;;;;;;10344847;28;20256;-82
2022/05/18 11:24:43;;;;;;;2.08;1.08;;;25.90;99.90;;;;;;10315596;28;20380;-82
2022/05/18 11:30:31;;;;;;;4.18;2.92;;;25.40;99.90;;;;;;10109372;29;20247;-81
2022/05/18 11:36:21;;;;;;;3.60;1.90;;;25.40;99.90;;;;;;10101146;29;20277;-82
2022/05/18 11:42:06;;;;;;;3.67;1.10;;;25.70;99.90;;;;;;10134415;29;20221;-82
2022/05/18 11:47:35;;;;;;;3.05;0.88;;;25.40;99.90;;;;;;10142404;29;20240;-81
2022/05/18 11:53:18;;;;;;;2.78;1.08;;;25.20;99.90;;;;;;10155542;29;20510;-82
2022/05/18 11:59:22;;;;;;;1.27;0.90;;;25.70;99.90;;;;;;10122406;29;20244;-83
2022/05/18 12:04:58;;;;;;;1.40;1.15;;;25.50;99.90;;;;;;10200354;28;20423;-85
2022/05/18 12:10:41;;;;;;;3.05;1.20;;;25.50;99.90;;;;;;10343219;28;20795;-83
2022/05/18 12:16:09;;;;;;;5.03;1.30;;;25.70;99.90;;;;;;10343201;28;20260;-82
2022/05/18 12:21:53;;;;;;;2.20;1.02;;;25.80;91.10;;;;;;10341109;28;20205;-81
2022/05/18 12:27:18;;;;;;;1.50;1.13;;;25.70;22.60;;;;;;10340860;28;20229;-82
2022/05/18 12:32:40;;;;;;;1.08;0.73;;;25.40;29.40;;;;;;10348564;28;20318;-81
2022/05/18 12:38:12;;;;;;;1.23;0.90;;;25.40;25.80;;;;;;10333963;28;20244;-81
2022/05/18 12:43:40;;;;;;;3.72;1.33;;;25.30;28.90;;;;;;10351965;28;20202;-81
2022/05/18 12:49:10;;;;;;;4.78;1.02;;;25.20;35.90;;;;;;10328241;28;20226;-81
2022/05/18 12:54:40;;;;;;;1.48;0.80;;;25.10;28.40;;;;;;10303379;28;20195;-81
2022/05/18 13:00:08;;;;;;;2.45;1.17;;;25.10;28.30;;;;;;10353507;28;20201;-82
2022/05/18 13:05:40;;;;;;;7.45;3.10;;;24.70;22.90;;;;;;10339650;28;20273;-86
2022/05/18 13:11:57;;;;;;;2.67;1.10;;;24.70;12.40;;;;;;10314147;28;20305;-80
2022/05/18 13:18:14;;;;;;;4.70;0.80;;;24.90;1.00;;;;;;10258211;29;20323;-82
2022/05/18 13:24:10;;;;;;;2.58;0.70;;;24.70;2.50;;;;;;10266310;28;20210;-86
2022/05/18 13:30:08;;;;;;;3.58;0.88;;;24.60;1.00;;;;;;10281138;28;20281;-89
2022/05/18 13:35:31;;;;;;;0.52;0.52;;;24.70;1.00;;;;;;10298692;28;20229;-81
2022/05/18 13:41:11;;;;;;;4.70;1.10;;;24.50;1.00;;;;;;10322635;28;20236;-82
2022/05/18 13:46:34;;;;;;;1.23;0.77;;;24.50;1.00;;;;;;10352136;28;20551;-81
2022/05/18 13:52:05;;;;;;;2.45;0.90;;;24.40;1.00;;;;;;10301255;28;20226;-83
2022/05/18 13:57:36;;;;;;;0.60;0.60;;;24.10;1.00;;;;;;10339217;28;20524;-82
2022/05/18 14:03:00;;;;;;;1.02;0.70;;;23.70;1.00;;;;;;10328009;28;20210;-83
2022/05/18 14:08:48;;;;;;;1.73;0.90;;;23.40;1.00;;;;;;10349429;28;20225;-84
2022/05/18 14:14:10;;;;;;;4.38;1.38;;;23.40;1.00;;;;;;10350940;28;20202;-83
2022/05/18 14:19:55;;;;;;;1.73;1.25;;;23.40;1.00;;;;;;10350415;28;20435;-82
2022/05/18 14:25:25;;;;;;;11.85;1.40;;;23.30;1.00;;;;;;10348761;28;20216;-81
2022/05/18 14:30:47;;;;;;;2.90;0.98;;;23.20;1.00;;;;;;10310692;28;20250;-82
2022/05/18 14:36:38;;;;;;;0.95;0.50;;;22.70;1.00;;;;;;10309516;28;20238;-81
2022/05/18 14:42:01;;;;;;;1.52;0.73;;;22.70;1.00;;;;;;10321870;28;20196;-82
2022/05/18 14:47:50;;;;;;;3.83;0.63;;;22.70;1.00;;;;;;10348918;28;20300;-81
2022/05/18 14:53:21;;;;;;;2.83;1.65;;;22.70;1.00;;;;;;10339011;28;20189;-82
2022/05/18 14:58:49;;;;;;;7.13;5.07;;;22.70;1.00;;;;;;10350887;28;20277;-86
2022/05/18 15:04:18;;;;;;;1.58;1.20;;;22.40;1.00;;;;;;10337915;28;20201;-82
2022/05/18 15:09:45;;;;;;;14.38;5.57;;;22.30;1.00;;;;;;10319411;28;20228;-82
2022/05/18 15:15:19;;;;;;;2.58;1.45;;;22.20;1.00;;;;;;10326378;28;20202;-81
2022/05/18 15:20:43;;;;;;;1.30;0.80;;;22.10;1.00;;;;;;10340397;28;20197;-82
2022/05/18 15:26:20;;;;;;;1.85;1.20;;;21.90;1.00;;;;;;10355985;28;20232;-83
2022/05/18 15:31:49;;;;;;;2.58;1.00;;;21.90;1.00;;;;;;10330646;28;20217;-83
2022/05/18 15:37:13;;;;;;;2.15;0.85;;;21.80;1.00;;;;;;10312760;28;20230;-83
2022/05/18 15:42:34;;;;;;;5.15;1.50;;;21.60;1.00;;;;;;10300591;28;20198;-83
2022/05/18 15:47:59;;;;;;;2.28;1.30;;;21.40;1.00;;;;;;10320157;28;20217;-83
2022/05/18 15:53:26;;;;;;;5.70;1.20;;;21.40;1.00;;;;;;10354220;28;20170;-83
2022/05/18 15:58:48;;;;;;;2.50;1.52;;;21.30;1.00;;;;;;10353068;28;20198;-82
2022/05/18 16:04:09;;;;;;;1.35;1.23;;;21.20;1.00;;;;;;10339728;28;20277;-82
2022/05/18 16:09:35;;;;;;;5.32;3.47;;;21.10;1.00;;;;;;10325937;28;20217;-82
2022/05/18 16:21:50;;;;;;;3.28;1.30;;;21.00;1.00;;;;;;10359219;28;20181;-81
2022/05/18 16:27:12;;;;;;;1.48;0.90;;;20.90;1.00;;;;;;10360705;28;20217;-81
2022/05/18 16:32:33;;;;;;;1.60;1.17;;;20.90;1.00;;;;;;10343629;28;20265;-81
2022/05/18 16:37:55;;;;;;;2.40;1.90;;;20.70;1.00;;;;;;10359933;28;20540;-80
2022/05/18 16:43:16;;;;;;;3.53;1.27;;;20.70;1.00;;;;;;10360284;28;20301;-81
2022/05/18 16:48:38;;;;;;;4.53;2.40;;;20.60;1.00;;;;;;10359254;28;20230;-80
2022/05/18 16:53:59;;;;;;;10.80;8.63;;;20.60;1.00;;;;;;10359588;28;20451;-81
2022/05/18 16:59:25;;;;;;;24.15;17.45;;;20.50;1.00;;;;;;10359198;28;20209;-80
2022/05/18 17:10:26;;;;;;;6.35;2.50;;;20.30;1.00;;;;;;10358449;28;20229;-80
2022/05/18 17:15:48;;;;;;;10.32;4.57;;;20.20;1.00;;;;;;10359068;28;20544;-79
2022/05/18 17:21:11;;;;;;;3.63;1.83;;;20.10;1.00;;;;;;10344385;28;20198;-80
2022/05/18 17:26:37;;;;;;;4.10;2.47;;;19.90;1.00;;;;;;10330804;28;20373;-80
2022/05/18 17:31:59;;;;;;;9.80;5.90;;;19.80;1.00;;;;;;10356767;28;20197;-81
2022/05/18 17:37:20;;;;;;;11.45;5.20;;;19.70;1.00;;;;;;10358692;28;20204;-82
2022/05/18 17:42:42;;;;;;;3.85;2.10;;;19.60;1.00;;;;;;10343829;28;20196;-81
2022/05/18 17:48:09;;;;;;;4.10;2.00;;;19.40;1.00;;;;;;10343631;28;20738;-81
2022/05/18 17:53:31;;;;;;;2.55;1.85;;;19.30;1.00;;;;;;10357045;28;20194;-81
2022/05/18 17:58:52;;;;;;;4.07;2.20;;;19.10;1.00;;;;;;10356787;28;20202;-81
2022/05/18 18:04:14;;;;;;;5.53;2.13;;;18.90;1.00;;;;;;10329506;28;20209;-81
2022/05/18 18:09:36;;;;;;;6.20;3.58;;;18.80;1.00;;;;;;10342300;28;20221;-81
2022/05/18 18:14:57;;;;;;;3.78;2.60;;;18.60;1.00;;;;;;10356708;28;20196;-80
2022/05/18 18:20:26;;;;;;;3.92;2.47;;;18.50;1.00;;;;;;10355673;28;20289;-79
2022/05/18 18:25:51;;;;;;;4.43;2.08;;;18.40;1.00;;;;;;10328708;28;20236;-79
2022/05/18 18:31:13;;;;;;;11.77;3.88;;;18.30;1.00;;;;;;10334650;28;20237;-80
2022/05/18 18:36:39;;;;;;;11.18;4.47;;;18.20;1.00;;;;;;10356482;28;20260;-80
2022/05/18 18:42:02;;;;;;;7.95;5.18;;;18.10;1.00;;;;;;10354820;28;20201;-81
2022/05/18 18:47:29;;;;;;;13.95;8.70;;;17.80;1.00;;;;;;10355209;28;20214;-80
2022/05/18 18:58:31;;;;;;;21.75;10.00;;;17.50;1.00;;;;;;10355731;28;20189;-80
2022/05/18 19:03:52;;;;;;;31.60;14.70;;;17.40;1.00;;;;;;10340006;28;20201;-80
2022/05/18 19:09:16;;;;;;;61.17;23.45;;;17.30;1.00;;;;;;10354187;28;20233;-80
2022/05/18 19:14:37;;;;;;;21.30;10.05;;;17.10;1.00;;;;;;10354388;28;20209;-81
2022/05/18 19:19:59;;;;;;;11.55;6.15;;;16.80;1.00;;;;;;10353749;28;20548;-80
2022/05/18 19:25:27;;;;;;;24.55;10.98;;;16.60;1.00;;;;;;10354131;28;20198;-81
2022/05/18 19:30:49;;;;;;;20.83;8.40;;;16.40;1.00;;;;;;10340075;28;20271;-81
2022/05/18 19:36:10;;;;;;;11.13;6.97;;;16.20;1.00;;;;;;10354728;28;20224;-80
2022/05/18 19:41:32;;;;;;;14.25;9.45;;;16.00;1.00;;;;;;10340297;28;20221;-81
2022/05/18 19:46:54;;;;;;;16.75;10.85;;;15.90;1.00;;;;;;10354021;28;20208;-81
2022/05/18 19:52:15;;;;;;;17.42;10.85;;;15.70;1.00;;;;;;10354118;28;20201;-81
2022/05/18 19:57:41;;;;;;;15.23;9.43;;;15.50;1.00;;;;;;10348155;28;20221;-80
2022/05/18 20:03:05;;;;;;;21.55;12.98;;;15.40;1.00;;;;;;10361218;28;20205;-80
2022/05/18 20:08:27;;;;;;;28.90;13.85;;;15.20;1.00;;;;;;10360945;28;20224;-81
2022/05/18 20:13:49;;;;;;;29.65;16.40;;;15.20;1.00;;;;;;10361739;28;20259;-80
2022/05/18 20:19:10;;;;;;;29.52;15.18;;;15.10;1.00;;;;;;10361597;28;20196;-80
2022/05/18 20:24:32;;;;;;;20.88;11.75;;;15.10;1.00;;;;;;10361880;28;20357;-80
2022/05/18 20:29:53;;;;;;;14.65;8.27;;;15.00;1.00;;;;;;10346129;28;20227;-80
2022/05/18 20:35:15;;;;;;;14.60;7.65;;;14.80;1.00;;;;;;10332881;28;20422;-80
2022/05/18 20:40:36;;;;;;;13.77;8.85;;;14.70;1.00;;;;;;10346266;28;20206;-80
2022/05/18 20:46:02;;;;;;;20.52;9.45;;;14.50;1.00;;;;;;10332908;28;20504;-81
2022/05/18 20:51:24;;;;;;;18.58;9.60;;;14.30;1.00;;;;;;10359455;28;20526;-80
2022/05/18 20:56:45;;;;;;;21.02;10.00;;;14.20;4.30;;;;;;10359379;28;20279;-81
2022/05/18 21:02:07;;;;;;;16.88;8.35;;;14.10;1.30;;;;;;10358628;28;20211;-81
2022/05/18 21:07:28;;;;;;;22.30;11.45;;;13.90;1.00;;;;;;10345594;28;20223;-79
2022/05/18 21:13:02;;;;;;;18.45;10.35;;;13.90;1.00;;;;;;10359826;28;20200;-80
2022/05/18 21:18:24;;;;;;;20.35;10.18;;;13.80;1.00;;;;;;10359290;28;20197;-80
2022/05/18 21:23:46;;;;;;;16.20;8.63;;;13.60;1.00;;;;;;10344833;28;20208;-80
2022/05/18 21:29:16;;;;;;;17.23;9.60;;;13.40;16.60;;;;;;10330593;28;20224;-80
2022/05/18 21:34:42;;;;;;;21.10;9.18;;;13.30;31.40;;;;;;10358030;28;20287;-80
2022/05/18 21:40:05;;;;;;;43.47;20.48;;;13.20;40.70;;;;;;10357328;28;20204;-78
2022/05/18 21:45:26;;;;;;;21.45;10.93;;;13.00;47.50;;;;;;10329957;28;20204;-79
2022/05/18 21:50:48;;;;;;;14.10;8.20;;;12.80;57.30;;;;;;10357050;28;20220;-79
2022/05/18 21:56:12;;;;;;;29.88;12.25;;;12.80;84.60;;;;;;10343491;28;20199;-79
2022/05/18 22:01:33;;;;;;;30.92;14.52;;;12.60;99.90;;;;;;10342644;28;20264;-79
2022/05/18 22:06:56;;;;;;;15.07;8.65;;;12.50;99.90;;;;;;10357992;28;20207;-79
2022/05/18 22:12:22;;;;;;;11.65;6.25;;;12.50;99.90;;;;;;10342462;28;20270;-79
2022/05/18 22:17:43;;;;;;;12.45;6.60;;;12.40;99.90;;;;;;10356832;28;20219;-79
2022/05/18 22:23:05;;;;;;;21.13;10.45;;;12.30;99.90;;;;;;10356476;28;20216;-79
2022/05/18 22:28:29;;;;;;;25.10;11.63;;;12.20;99.90;;;;;;10356551;28;20224;-80
2022/05/18 22:33:51;;;;;;;16.25;8.68;;;12.10;1.00;;;;;;10342026;28;20244;-80
2022/05/18 22:39:12;;;;;;;18.77;8.48;;;12.00;1.00;;;;;;10341770;28;20191;-79
2022/05/18 22:44:40;;;;;;;18.92;9.85;;;11.80;1.00;;;;;;10355393;28;20478;-80
2022/05/18 22:50:28;;;;;;;19.52;9.68;;;11.80;1.00;;;;;;10341046;28;20231;-80
2022/05/18 22:55:49;;;;;;;19.90;11.18;;;11.80;18.70;;;;;;10356166;28;20201;-80
2022/05/18 23:01:12;;;;;;;22.95;11.10;;;11.80;99.90;;;;;;10340650;28;20286;-80
2022/05/18 23:06:35;;;;;;;17.92;9.10;;;11.70;99.90;;;;;;10314909;28;20258;-79
2022/05/18 23:11:56;;;;;;;25.02;9.57;;;11.50;1.00;;;;;;10353928;28;20254;-80
2022/05/18 23:17:17;;;;;;;17.48;8.90;;;11.40;1.00;;;;;;10354334;28;20487;-80
2022/05/18 23:28:21;;;;;;;31.35;13.32;;;11.30;1.00;;;;;;10354894;28;20234;-78
2022/05/18 23:33:46;;;;;;;22.63;12.68;;;11.10;1.00;;;;;;10362608;28;20533;-79
2022/05/18 23:39:07;;;;;;;26.35;12.32;;;11.10;44.40;;;;;;10362220;28;20223;-79
2022/05/18 23:44:29;;;;;;;26.88;12.20;;;11.10;51.00;;;;;;10363515;28;20194;-79
2022/05/18 23:49:50;;;;;;;22.30;12.80;;;11.00;99.90;;;;;;10361910;28;20402;-79
2022/05/18 23:55:12;;;;;;;28.80;12.38;;;10.90;1.00;;;;;;10362835;28;20483;-79
